sensor_id;sensor_type;location;lat;lon;timestamp;pressure;altitude;pressure_sealevel;temperature;humidity
71772;BME280;59606;52.138;5.424;2023-03-21T00:01:48;101739.75;;;9.20;100.00
71772;BME280;59606;52.138;5.424;2023-03-21T00:04:15;101738.00;;;9.20;100.00
71772;BME280;59606;52.138;5.424;2023-03-21T00:06:42;101737.16;;;9.20;100.00
71772;BME280;59606;52.138;5.424;2023-03-21T00:09:09;101738.06;;;9.19;100.00
71772;BME280;59606;52.138;5.424;2023-03-21T00:11:36;101734.59;;;9.18;100.00
71772;BME280;59606;52.138;5.424;2023-03-21T00:14:03;101743.25;;;9.19;100.00
71772;BME280;59606;52.138;5.424;2023-03-21T00:16:31;101740.69;;;9.17;100.00
71772;BME280;59606;52.138;5.424;2023-03-21T00:18:59;101733.81;;;9.16;100.00
71772;BME280;59606;52.138;5.424;2023-03-21T00:21:28;101730.28;;;9.17;100.00
71772;BME280;59606;52.138;5.424;2023-03-21T00:24:17;101728.53;;;9.18;100.00
71772;BME280;59606;52.138;5.424;2023-03-21T00:26:44;101731.97;;;9.18;100.00
71772;BME280;59606;52.138;5.424;2023-03-21T00:29:11;101728.59;;;9.16;100.00
71772;BME280;59606;52.138;5.424;2023-03-21T00:31:38;101722.56;;;9.16;100.00
71772;BME280;59606;52.138;5.424;2023-03-21T00:34:04;101723.41;;;9.16;100.00
71772;BME280;59606;52.138;5.424;2023-03-21T00:36:31;101725.19;;;9.14;100.00
71772;BME280;59606;52.138;5.424;2023-03-21T00:38:57;101726.97;;;9.14;100.00
71772;BME280;59606;52.138;5.424;2023-03-21T00:41:26;101723.53;;;9.12;100.00
71772;BME280;59606;52.138;5.424;2023-03-21T00:44:08;101725.31;;;9.11;100.00
71772;BME280;59606;52.138;5.424;2023-03-21T00:46:34;101717.56;;;9.10;100.00
71772;BME280;59606;52.138;5.424;2023-03-21T00:49:12;101715.88;;;9.09;100.00
71772;BME280;59606;52.138;5.424;2023-03-21T00:51:39;101715.88;;;9.09;100.00
71772;BME280;59606;52.138;5.424;2023-03-21T00:54:05;101717.56;;;9.10;100.00
71772;BME280;59606;52.138;5.424;2023-03-21T00:56:33;101709.81;;;9.08;100.00
71772;BME280;59606;52.138;5.424;2023-03-21T00:58:59;101700.28;;;9.09;100.00
71772;BME280;59606;52.138;5.424;2023-03-21T01:01:25;101708.09;;;9.09;100.00
71772;BME280;59606;52.138;5.424;2023-03-21T01:03:58;101703.72;;;9.09;100.00
71772;BME280;59606;52.138;5.424;2023-03-21T01:06:36;101693.34;;;9.09;100.00
71772;BME280;59606;52.138;5.424;2023-03-21T01:09:13;101694.22;;;9.08;100.00
71772;BME280;59606;52.138;5.424;2023-03-21T01:11:40;101685.56;;;9.08;100.00
71772;BME280;59606;52.138;5.424;2023-03-21T01:14:08;101686.41;;;9.08;100.00
71772;BME280;59606;52.138;5.424;2023-03-21T01:16:49;101686.41;;;9.08;100.00
71772;BME280;59606;52.138;5.424;2023-03-21T01:19:18;101676.91;;;9.09;100.00
71772;BME280;59606;52.138;5.424;2023-03-21T01:22:05;101678.63;;;9.08;100.00
71772;BME280;59606;52.138;5.424;2023-03-21T01:24:31;101674.34;;;9.07;100.00
71772;BME280;59606;52.138;5.424;2023-03-21T01:27:02;101681.22;;;9.08;100.00
71772;BME280;59606;52.138;5.424;2023-03-21T01:29:29;101669.94;;;9.09;100.00
71772;BME280;59606;52.138;5.424;2023-03-21T01:31:55;101676.91;;;9.09;100.00
71772;BME280;59606;52.138;5.424;2023-03-21T01:34:22;101671.69;;;9.09;100.00
71772;BME280;59606;52.138;5.424;2023-03-21T01:36:48;101669.09;;;9.09;100.00
71772;BME280;59606;52.138;5.424;2023-03-21T01:39:15;101669.13;;;9.07;100.00
71772;BME280;59606;52.138;5.424;2023-03-21T01:41:41;101662.19;;;9.08;100.00
71772;BME280;59606;52.138;5.424;2023-03-21T01:44:17;101656.97;;;9.08;100.00
71772;BME280;59606;52.138;5.424;2023-03-21T01:46:51;101661.34;;;9.07;100.00
71772;BME280;59606;52.138;5.424;2023-03-21T01:49:44;101663.09;;;9.07;100.00
71772;BME280;59606;52.138;5.424;2023-03-21T01:52:17;101652.69;;;9.07;100.00
71772;BME280;59606;52.138;5.424;2023-03-21T01:55:02;101654.38;;;9.08;100.00
71772;BME280;59606;52.138;5.424;2023-03-21T01:57:33;101646.66;;;9.06;100.00
71772;BME280;59606;52.138;5.424;2023-03-21T02:00:15;101639.69;;;9.07;100.00
71772;BME280;59606;52.138;5.424;2023-03-21T02:02:44;101639.72;;;9.05;100.00
71772;BME280;59606;52.138;5.424;2023-03-21T02:05:39;101639.72;;;9.05;100.00
71772;BME280;59606;52.138;5.424;2023-03-21T02:08:09;101640.59;;;9.06;100.00
71772;BME280;59606;52.138;5.424;2023-03-21T02:10:36;101634.53;;;9.05;100.00
71772;BME280;59606;52.138;5.424;2023-03-21T02:13:03;101628.56;;;9.03;100.00
71772;BME280;59606;52.138;5.424;2023-03-21T02:15:40;101625.97;;;9.03;100.00
71772;BME280;59606;52.138;5.424;2023-03-21T02:37:47;101613.06;;;9.00;100.00
71772;BME280;59606;52.138;5.424;2023-03-21T02:40:37;101613.00;;;9.02;100.00
71772;BME280;59606;52.138;5.424;2023-03-21T02:43:22;101605.28;;;9.00;100.00
71772;BME280;59606;52.138;5.424;2023-03-21T02:45:55;101607.16;;;8.96;100.00
71772;BME280;59606;52.138;5.424;2023-03-21T02:48:29;101603.63;;;8.97;100.00
71772;BME280;59606;52.138;5.424;2023-03-21T02:51:17;101608.81;;;8.97;100.00
71772;BME280;59606;52.138;5.424;2023-03-21T02:53:49;101611.38;;;8.99;100.00
71772;BME280;59606;52.138;5.424;2023-03-21T02:56:37;101600.19;;;8.97;100.00
71772;BME280;59606;52.138;5.424;2023-03-21T02:59:06;101600.13;;;8.98;100.00
71772;BME280;59606;52.138;5.424;2023-03-21T03:01:33;101592.31;;;8.98;100.00
71772;BME280;59606;52.138;5.424;2023-03-21T03:03:59;101597.53;;;8.98;100.00
71772;BME280;59606;52.138;5.424;2023-03-21T03:06:31;101597.53;;;8.98;100.00
71772;BME280;59606;52.138;5.424;2023-03-21T03:11:42;101589.78;;;8.97;100.00
71772;BME280;59606;52.138;5.424;2023-03-21T03:15:32;101583.75;;;8.96;100.00
71772;BME280;59606;52.138;5.424;2023-03-21T03:17:42;101591.56;;;8.96;100.00
71772;BME280;59606;52.138;5.424;2023-03-21T03:20:23;101586.34;;;8.96;100.00
71772;BME280;59606;52.138;5.424;2023-03-21T03:23:04;101587.25;;;8.95;100.00
71772;BME280;59606;52.138;5.424;2023-03-21T03:25:44;101589.00;;;8.95;100.00
71772;BME280;59606;52.138;5.424;2023-03-21T03:28:16;101589.00;;;8.95;100.00
71772;BME280;59606;52.138;5.424;2023-03-21T03:30:46;101587.25;;;8.95;100.00
71772;BME280;59606;52.138;5.424;2023-03-21T03:33:36;101589.88;;;8.95;100.00
71772;BME280;59606;52.138;5.424;2023-03-21T03:36:05;101586.38;;;8.95;100.00
71772;BME280;59606;52.138;5.424;2023-03-21T03:38:37;101588.16;;;8.94;100.00
71772;BME280;59606;52.138;5.424;2023-03-21T03:41:10;101585.50;;;8.96;100.00
71772;BME280;59606;52.138;5.424;2023-03-21T03:43:42;101583.78;;;8.95;100.00
71772;BME280;59606;52.138;5.424;2023-03-21T03:46:17;101579.50;;;8.94;100.00
71772;BME280;59606;52.138;5.424;2023-03-21T03:48:51;101577.72;;;8.96;100.00
71772;BME280;59606;52.138;5.424;2023-03-21T03:51:27;101576.88;;;8.95;100.00
71772;BME280;59606;52.138;5.424;2023-03-21T03:53:59;101573.41;;;8.95;100.00
71772;BME280;59606;52.138;5.424;2023-03-21T03:56:27;101572.63;;;8.93;100.00
71772;BME280;59606;52.138;5.424;2023-03-21T03:58:55;101570.88;;;8.93;100.00
71772;BME280;59606;52.138;5.424;2023-03-21T04:01:22;101569.19;;;8.92;100.00
71772;BME280;59606;52.138;5.424;2023-03-21T04:03:48;101570.91;;;8.92;100.00
71772;BME280;59606;52.138;5.424;2023-03-21T04:06:26;101567.47;;;8.91;100.00
71772;BME280;59606;52.138;5.424;2023-03-21T04:08:55;101564.88;;;8.91;100.00
71772;BME280;59606;52.138;5.424;2023-03-21T04:11:22;101564.03;;;8.91;100.00
71772;BME280;59606;52.138;5.424;2023-03-21T04:13:48;101564.88;;;8.91;100.00
71772;BME280;59606;52.138;5.424;2023-03-21T04:16:15;101559.66;;;8.91;100.00
71772;BME280;59606;52.138;5.424;2023-03-21T04:18:42;101555.31;;;8.92;100.00
71772;BME280;59606;52.138;5.424;2023-03-21T04:21:10;101551.03;;;8.91;100.00
71772;BME280;59606;52.138;5.424;2023-03-21T04:23:39;101553.63;;;8.91;100.00
71772;BME280;59606;52.138;5.424;2023-03-21T04:26:06;101551.88;;;8.91;100.00
71772;BME280;59606;52.138;5.424;2023-03-21T04:28:33;101555.38;;;8.90;100.00
71772;BME280;59606;52.138;5.424;2023-03-21T04:31:03;101562.34;;;8.90;100.00
71772;BME280;59606;52.138;5.424;2023-03-21T04:33:44;101554.53;;;8.90;100.00
71772;BME280;59606;52.138;5.424;2023-03-21T04:36:13;101557.97;;;8.90;100.00
71772;BME280;59606;52.138;5.424;2023-03-21T04:38:50;101551.94;;;8.90;100.00
71772;BME280;59606;52.138;5.424;2023-03-21T04:41:17;101551.97;;;8.88;100.00
71772;BME280;59606;52.138;5.424;2023-03-21T04:43:44;101545.09;;;8.87;100.00
71772;BME280;59606;52.138;5.424;2023-03-21T04:46:11;101550.28;;;8.87;100.00
71772;BME280;59606;52.138;5.424;2023-03-21T04:48:37;101551.97;;;8.88;100.00
71772;BME280;59606;52.138;5.424;2023-03-21T04:51:04;101547.66;;;8.89;100.00
71772;BME280;59606;52.138;5.424;2023-03-21T04:53:30;101541.59;;;8.88;100.00
71772;BME280;59606;52.138;5.424;2023-03-21T04:55:57;101538.16;;;8.88;100.00
71772;BME280;59606;52.138;5.424;2023-03-21T04:58:24;101546.00;;;8.86;100.00
71772;BME280;59606;52.138;5.424;2023-03-21T05:00:50;101541.72;;;8.85;100.00
71772;BME280;59606;52.138;5.424;2023-03-21T05:03:18;101553.00;;;8.84;100.00
71772;BME280;59606;52.138;5.424;2023-03-21T05:05:46;101542.59;;;8.84;100.00
71772;BME280;59606;52.138;5.424;2023-03-21T05:08:13;101544.38;;;8.84;100.00
71772;BME280;59606;52.138;5.424;2023-03-21T05:10:40;101541.72;;;8.85;100.00
71772;BME280;59606;52.138;5.424;2023-03-21T05:13:07;101546.97;;;8.84;100.00
71772;BME280;59606;52.138;5.424;2023-03-21T05:15:34;101553.09;;;8.81;100.00
71772;BME280;59606;52.138;5.424;2023-03-21T05:18:00;101548.75;;;8.82;100.00
71772;BME280;59606;52.138;5.424;2023-03-21T05:20:38;101545.31;;;8.81;100.00
71772;BME280;59606;52.138;5.424;2023-03-21T05:23:10;101544.47;;;8.81;100.00
71772;BME280;59606;52.138;5.424;2023-03-21T05:25:38;101542.72;;;8.81;100.00
71772;BME280;59606;52.138;5.424;2023-03-21T05:28:06;101542.81;;;8.78;100.00
71772;BME280;59606;52.138;5.424;2023-03-21T05:30:33;101541.09;;;8.79;100.00
71772;BME280;59606;52.138;5.424;2023-03-21T05:33:00;101532.44;;;8.78;100.00
71772;BME280;59606;52.138;5.424;2023-03-21T05:35:26;101532.44;;;8.78;100.00
71772;BME280;59606;52.138;5.424;2023-03-21T05:37:53;101533.31;;;8.79;100.00
71772;BME280;59606;52.138;5.424;2023-03-21T05:40:19;101536.75;;;8.79;100.00
71772;BME280;59606;52.138;5.424;2023-03-21T05:42:47;101534.16;;;8.79;100.00
71772;BME280;59606;52.138;5.424;2023-03-21T05:45:14;101528.94;;;8.79;100.00
71772;BME280;59606;52.138;5.424;2023-03-21T05:47:41;101539.34;;;8.79;100.00
71772;BME280;59606;52.138;5.424;2023-03-21T05:50:09;101536.75;;;8.79;100.00
71772;BME280;59606;52.138;5.424;2023-03-21T05:52:36;101530.63;;;8.80;100.00
71772;BME280;59606;52.138;5.424;2023-03-21T05:55:03;101533.25;;;8.80;100.00
71772;BME280;59606;52.138;5.424;2023-03-21T05:57:30;101522.84;;;8.80;100.00
71772;BME280;59606;52.138;5.424;2023-03-21T06:00:00;101532.31;;;8.81;100.00
71772;BME280;59606;52.138;5.424;2023-03-21T06:02:27;101524.50;;;8.83;100.00
71772;BME280;59606;52.138;5.424;2023-03-21T06:04:54;101526.19;;;8.84;100.00
71772;BME280;59606;52.138;5.424;2023-03-21T06:07:21;101525.34;;;8.83;100.00
71772;BME280;59606;52.138;5.424;2023-03-21T06:09:48;101520.97;;;8.84;100.00
71772;BME280;59606;52.138;5.424;2023-03-21T06:12:15;101520.06;;;8.85;100.00
71772;BME280;59606;52.138;5.424;2023-03-21T06:14:41;101518.34;;;8.85;100.00
71772;BME280;59606;52.138;5.424;2023-03-21T06:17:08;101520.88;;;8.87;100.00
71772;BME280;59606;52.138;5.424;2023-03-21T06:19:35;101524.31;;;8.87;100.00
71772;BME280;59606;52.138;5.424;2023-03-21T06:22:01;101525.22;;;8.86;100.00
71772;BME280;59606;52.138;5.424;2023-03-21T06:24:27;101523.53;;;8.85;100.00
71772;BME280;59606;52.138;5.424;2023-03-21T06:26:54;101524.38;;;8.86;100.00
71772;BME280;59606;52.138;5.424;2023-03-21T06:29:21;101522.63;;;8.86;100.00
71772;BME280;59606;52.138;5.424;2023-03-21T06:31:47;101520.03;;;8.86;100.00
71772;BME280;59606;52.138;5.424;2023-03-21T06:34:14;101521.72;;;8.87;100.00
71772;BME280;59606;52.138;5.424;2023-03-21T06:36:41;101525.97;;;8.90;100.00
71772;BME280;59606;52.138;5.424;2023-03-21T06:39:10;101524.19;;;8.90;100.00
71772;BME280;59606;52.138;5.424;2023-03-21T06:41:36;101530.19;;;8.92;100.00
71772;BME280;59606;52.138;5.424;2023-03-21T06:44:03;101529.22;;;8.95;100.00
71772;BME280;59606;52.138;5.424;2023-03-21T06:46:29;101526.63;;;8.95;100.00
71772;BME280;59606;52.138;5.424;2023-03-21T06:48:56;101532.63;;;8.97;100.00
71772;BME280;59606;52.138;5.424;2023-03-21T06:51:22;101527.53;;;8.94;100.00
71772;BME280;59606;52.138;5.424;2023-03-21T06:53:49;101527.50;;;8.95;100.00
71772;BME280;59606;52.138;5.424;2023-03-21T06:56:16;101523.19;;;8.94;100.00
71772;BME280;59606;52.138;5.424;2023-03-21T06:58:42;101526.56;;;8.96;100.00
71772;BME280;59606;52.138;5.424;2023-03-21T07:01:09;101526.56;;;8.96;100.00
71772;BME280;59606;52.138;5.424;2023-03-21T07:03:35;101526.47;;;9.00;100.00
71772;BME280;59606;52.138;5.424;2023-03-21T07:06:05;101524.72;;;9.00;100.00
71772;BME280;59606;52.138;5.424;2023-03-21T07:08:34;101527.31;;;9.00;100.00
71772;BME280;59606;52.138;5.424;2023-03-21T07:11:00;101525.50;;;9.02;100.00
71772;BME280;59606;52.138;5.424;2023-03-21T07:13:26;101528.13;;;9.02;100.00
71772;BME280;59606;52.138;5.424;2023-03-21T07:15:53;101530.56;;;9.05;100.00
71772;BME280;59606;52.138;5.424;2023-03-21T07:18:20;101531.44;;;9.06;100.00
71772;BME280;59606;52.138;5.424;2023-03-21T07:20:47;101529.69;;;9.06;100.00
71772;BME280;59606;52.138;5.424;2023-03-21T07:23:21;101531.38;;;9.07;100.00
71772;BME280;59606;52.138;5.424;2023-03-21T07:25:49;101535.63;;;9.10;100.00
71772;BME280;59606;52.138;5.424;2023-03-21T07:28:16;101532.06;;;9.12;100.00
71772;BME280;59606;52.138;5.424;2023-03-21T07:30:44;101542.50;;;9.11;100.00
71772;BME280;59606;52.138;5.424;2023-03-21T07:33:11;101532.91;;;9.13;100.00
71772;BME280;59606;52.138;5.424;2023-03-21T07:35:38;101532.84;;;9.14;100.00
71772;BME280;59606;52.138;5.424;2023-03-21T07:38:05;101533.66;;;9.15;100.00
71772;BME280;59606;52.138;5.424;2023-03-21T07:40:32;101531.03;;;9.16;100.00
71772;BME280;59606;52.138;5.424;2023-03-21T07:42:58;101530.19;;;9.16;100.00
71772;BME280;59606;52.138;5.424;2023-03-21T07:45:25;101529.34;;;9.15;100.00
71772;BME280;59606;52.138;5.424;2023-03-21T07:47:52;101531.81;;;9.18;100.00
71772;BME280;59606;52.138;5.424;2023-03-21T07:50:20;101520.44;;;9.21;100.00
71772;BME280;59606;52.138;5.424;2023-03-21T07:52:46;101522.94;;;9.24;100.00
71772;BME280;59606;52.138;5.424;2023-03-21T07:55:13;101516.69;;;9.28;100.00
71772;BME280;59606;52.138;5.424;2023-03-21T07:57:42;101514.06;;;9.30;100.00
71772;BME280;59606;52.138;5.424;2023-03-21T08:00:09;101508.78;;;9.31;100.00
71772;BME280;59606;52.138;5.424;2023-03-21T08:02:36;101503.44;;;9.36;100.00
71772;BME280;59606;52.138;5.424;2023-03-21T08:05:03;101503.34;;;9.37;100.00
71772;BME280;59606;52.138;5.424;2023-03-21T08:07:30;101496.28;;;9.41;100.00
71772;BME280;59606;52.138;5.424;2023-03-21T08:09:57;101490.16;;;9.42;100.00
71772;BME280;59606;52.138;5.424;2023-03-21T08:12:24;101495.19;;;9.47;100.00
71772;BME280;59606;52.138;5.424;2023-03-21T08:14:50;101495.97;;;9.49;100.00
71772;BME280;59606;52.138;5.424;2023-03-21T08:17:19;101503.66;;;9.52;100.00
71772;BME280;59606;52.138;5.424;2023-03-21T08:19:46;101506.22;;;9.53;100.00
71772;BME280;59606;52.138;5.424;2023-03-21T08:22:12;101502.69;;;9.54;100.00
71772;BME280;59606;52.138;5.424;2023-03-21T08:24:39;101491.38;;;9.55;100.00
71772;BME280;59606;52.138;5.424;2023-03-21T08:27:05;101488.66;;;9.58;100.00
71772;BME280;59606;52.138;5.424;2023-03-21T08:29:32;101480.69;;;9.63;100.00
71772;BME280;59606;52.138;5.424;2023-03-21T08:31:58;101482.28;;;9.65;100.00
71772;BME280;59606;52.138;5.424;2023-03-21T08:34:25;101478.78;;;9.66;100.00
71772;BME280;59606;52.138;5.424;2023-03-21T08:36:52;101482.94;;;9.71;100.00
71772;BME280;59606;52.138;5.424;2023-03-21T08:39:18;101482.00;;;9.73;100.00
71772;BME280;59606;52.138;5.424;2023-03-21T08:41:47;101473.25;;;9.74;100.00
71772;BME280;59606;52.138;5.424;2023-03-21T08:44:13;101479.31;;;9.75;100.00
71772;BME280;59606;52.138;5.424;2023-03-21T08:46:42;101481.88;;;9.76;100.00
71772;BME280;59606;52.138;5.424;2023-03-21T08:49:08;101486.16;;;9.77;100.00
71772;BME280;59606;52.138;5.424;2023-03-21T08:51:35;101482.50;;;9.81;100.00
71772;BME280;59606;52.138;5.424;2023-03-21T08:54:03;101471.13;;;9.84;100.00
71772;BME280;59606;52.138;5.424;2023-03-21T08:56:29;101464.16;;;9.84;100.00
71772;BME280;59606;52.138;5.424;2023-03-21T08:58:56;101457.03;;;9.89;100.00
71772;BME280;59606;52.138;5.424;2023-03-21T09:01:24;101457.63;;;9.96;100.00
71772;BME280;59606;52.138;5.424;2023-03-21T09:03:51;101449.59;;;10.01;100.00
71772;BME280;59606;52.138;5.424;2023-03-21T09:06:17;101450.22;;;10.06;100.00
71772;BME280;59606;52.138;5.424;2023-03-21T09:08:44;101446.78;;;10.05;100.00
71772;BME280;59606;52.138;5.424;2023-03-21T09:11:11;101447.63;;;10.06;100.00
71772;BME280;59606;52.138;5.424;2023-03-21T09:13:38;101437.09;;;10.09;100.00
71772;BME280;59606;52.138;5.424;2023-03-21T09:16:05;101438.81;;;10.10;100.00
71772;BME280;59606;52.138;5.424;2023-03-21T09:18:31;101432.59;;;10.12;100.00
71772;BME280;59606;52.138;5.424;2023-03-21T09:21:10;101442.13;;;10.13;100.00
71772;BME280;59606;52.138;5.424;2023-03-21T09:23:40;101434.31;;;10.13;100.00
71772;BME280;59606;52.138;5.424;2023-03-21T09:26:08;101435.94;;;10.16;100.00
71772;BME280;59606;52.138;5.424;2023-03-21T09:28:35;101424.38;;;10.22;100.00
71772;BME280;59606;52.138;5.424;2023-03-21T09:31:04;101423.31;;;10.27;100.00
71772;BME280;59606;52.138;5.424;2023-03-21T09:33:31;101414.44;;;10.31;100.00
71772;BME280;59606;52.138;5.424;2023-03-21T09:35:58;101426.28;;;10.38;100.00
71772;BME280;59606;52.138;5.424;2023-03-21T09:38:26;101418.31;;;10.42;100.00
71772;BME280;59606;52.138;5.424;2023-03-21T09:43:54;101417.22;;;10.47;100.00
71772;BME280;59606;52.138;5.424;2023-03-21T09:46:42;101404.81;;;10.52;100.00
71772;BME280;59606;52.138;5.424;2023-03-21T09:49:39;101410.59;;;10.59;100.00
71772;BME280;59606;52.138;5.424;2023-03-21T09:52:17;101399.88;;;10.65;100.00
71772;BME280;59606;52.138;5.424;2023-03-21T09:54:45;101407.44;;;10.71;100.00
71772;BME280;59606;52.138;5.424;2023-03-21T09:57:23;101415.03;;;10.76;100.00
71772;BME280;59606;52.138;5.424;2023-03-21T09:59:53;101404.59;;;10.76;100.00
71772;BME280;59606;52.138;5.424;2023-03-21T10:02:41;101409.81;;;10.76;100.00
71772;BME280;59606;52.138;5.424;2023-03-21T10:05:22;101400.44;;;10.72;100.00
71772;BME280;59606;52.138;5.424;2023-03-21T10:10:27;101399.53;;;10.73;100.00
71772;BME280;59606;52.138;5.424;2023-03-21T10:12:55;101399.47;;;10.74;100.00
71772;BME280;59606;52.138;5.424;2023-03-21T10:15:24;101406.22;;;10.78;100.00
71772;BME280;59606;52.138;5.424;2023-03-21T10:18:00;101394.81;;;10.81;100.00
71772;BME280;59606;52.138;5.424;2023-03-21T10:20:33;101409.41;;;10.85;100.00
71772;BME280;59606;52.138;5.424;2023-03-21T10:23:03;101414.19;;;10.94;99.69
71772;BME280;59606;52.138;5.424;2023-03-21T10:25:37;101410.41;;;11.00;99.23
71772;BME280;59606;52.138;5.424;2023-03-21T10:28:13;101404.03;;;11.07;99.30
71772;BME280;59606;52.138;5.424;2023-03-21T10:30:52;101392.38;;;11.14;98.73
71772;BME280;59606;52.138;5.424;2023-03-21T10:33:23;101392.22;;;11.17;98.17
71772;BME280;59606;52.138;5.424;2023-03-21T10:35:55;101395.44;;;11.22;97.14
71772;BME280;59606;52.138;5.424;2023-03-21T10:38:24;101387.31;;;11.28;97.54
71772;BME280;59606;52.138;5.424;2023-03-21T10:40:52;101382.75;;;11.33;97.22
71772;BME280;59606;52.138;5.424;2023-03-21T10:43:30;101374.72;;;11.37;96.45
71772;BME280;59606;52.138;5.424;2023-03-21T10:46:06;101375.28;;;11.43;96.39
71772;BME280;59606;52.138;5.424;2023-03-21T10:48:38;101374.91;;;11.51;95.74
71772;BME280;59606;52.138;5.424;2023-03-21T10:51:07;101377.97;;;11.59;94.47
71772;BME280;59606;52.138;5.424;2023-03-21T10:53:38;101377.50;;;11.68;94.41
71772;BME280;59606;52.138;5.424;2023-03-21T10:56:07;101378.63;;;11.80;94.52
71772;BME280;59606;52.138;5.424;2023-03-21T10:58:40;101380.59;;;11.94;93.81
71772;BME280;59606;52.138;5.424;2023-03-21T11:01:11;101377.63;;;12.00;92.98
71772;BME280;59606;52.138;5.424;2023-03-21T11:03:43;101386.41;;;11.99;90.56
71772;BME280;59606;52.138;5.424;2023-03-21T11:08:54;101372.75;;;11.94;91.72
71772;BME280;59606;52.138;5.424;2023-03-21T11:11:48;101372.34;;;12.01;91.17
71772;BME280;59606;52.138;5.424;2023-03-21T11:16:52;101377.78;;;12.14;90.36
71772;BME280;59606;52.138;5.424;2023-03-21T11:19:28;101380.81;;;12.22;90.20
71772;BME280;59606;52.138;5.424;2023-03-21T11:21:57;101371.97;;;12.25;89.69
71772;BME280;59606;52.138;5.424;2023-03-21T11:24:27;101375.44;;;12.25;89.75
71772;BME280;59606;52.138;5.424;2023-03-21T11:26:56;101382.13;;;12.31;89.73
71772;BME280;59606;52.138;5.424;2023-03-21T11:29:34;101369.03;;;12.47;89.15
71772;BME280;59606;52.138;5.424;2023-03-21T11:32:15;101370.91;;;12.61;88.59
71772;BME280;59606;52.138;5.424;2023-03-21T11:34:51;101353.38;;;12.63;87.64
71772;BME280;59606;52.138;5.424;2023-03-21T11:39:53;101356.44;;;12.71;85.98
71772;BME280;59606;52.138;5.424;2023-03-21T11:42:29;101349.50;;;12.70;86.35
71772;BME280;59606;52.138;5.424;2023-03-21T11:45:00;101337.94;;;12.74;86.10
71772;BME280;59606;52.138;5.424;2023-03-21T11:47:28;101336.69;;;12.81;86.59
71772;BME280;59606;52.138;5.424;2023-03-21T11:49:55;101334.56;;;12.88;86.21
71772;BME280;59606;52.138;5.424;2023-03-21T11:52:37;101332.84;;;12.87;85.97
71772;BME280;59606;52.138;5.424;2023-03-21T11:55:23;101317.34;;;12.84;84.76
71772;BME280;59606;52.138;5.424;2023-03-21T12:03:38;101332.47;;;12.79;83.84
71772;BME280;59606;52.138;5.424;2023-03-21T12:06:25;101332.03;;;12.70;85.23
71772;BME280;59606;52.138;5.424;2023-03-21T12:09:04;101342.75;;;12.66;85.77
71772;BME280;59606;52.138;5.424;2023-03-21T12:12:05;101330.84;;;12.60;85.01
71772;BME280;59606;52.138;5.424;2023-03-21T12:17:25;101325.47;;;12.63;85.76
71772;BME280;59606;52.138;5.424;2023-03-21T12:29:35;101313.81;;;12.85;83.72
71772;BME280;59606;52.138;5.424;2023-03-21T12:42:58;101297.25;;;13.14;83.31
71772;BME280;59606;52.138;5.424;2023-03-21T12:45:32;101307.31;;;13.22;83.28
71772;BME280;59606;52.138;5.424;2023-03-21T12:51:10;101299.53;;;13.51;83.01
71772;BME280;59606;52.138;5.424;2023-03-21T12:53:47;101290.19;;;13.61;82.49
71772;BME280;59606;52.138;5.424;2023-03-21T12:56:30;101278.31;;;13.84;80.98
71772;BME280;59606;52.138;5.424;2023-03-21T12:59:07;101279.53;;;13.93;79.16
71772;BME280;59606;52.138;5.424;2023-03-21T13:01:39;101288.47;;;14.17;76.63
71772;BME280;59606;52.138;5.424;2023-03-21T13:06:49;101272.53;;;14.34;78.26
71772;BME280;59606;52.138;5.424;2023-03-21T13:09:25;101272.13;;;14.55;75.14
71772;BME280;59606;52.138;5.424;2023-03-21T13:14:58;101255.88;;;14.35;74.24
71772;BME280;59606;52.138;5.424;2023-03-21T13:17:58;101255.81;;;14.23;72.45
71772;BME280;59606;52.138;5.424;2023-03-21T13:20:34;101253.59;;;14.17;73.82
71772;BME280;59606;52.138;5.424;2023-03-21T13:23:07;101253.06;;;14.38;73.89
71772;BME280;59606;52.138;5.424;2023-03-21T13:25:40;101246.69;;;14.43;71.49
71772;BME280;59606;52.138;5.424;2023-03-21T13:28:17;101242.13;;;14.32;70.53
71772;BME280;59606;52.138;5.424;2023-03-21T13:30:45;101239.97;;;14.24;70.00
71772;BME280;59606;52.138;5.424;2023-03-21T13:33:36;101251.91;;;14.15;68.42
71772;BME280;59606;52.138;5.424;2023-03-21T13:36:07;101245.00;;;14.00;69.00
71772;BME280;59606;52.138;5.424;2023-03-21T13:38:35;101249.78;;;13.94;69.81
71772;BME280;59606;52.138;5.424;2023-03-21T13:41:18;101246.41;;;14.06;70.75
71772;BME280;59606;52.138;5.424;2023-03-21T14:02:22;101229.69;;;13.80;68.78
71772;BME280;59606;52.138;5.424;2023-03-21T14:05:20;101221.56;;;13.70;69.31
71772;BME280;59606;52.138;5.424;2023-03-21T14:07:57;101215.56;;;13.68;69.12
71772;BME280;59606;52.138;5.424;2023-03-21T14:10:50;101214.25;;;13.61;69.69
71772;BME280;59606;52.138;5.424;2023-03-21T14:13:22;101222.88;;;13.63;70.71
71772;BME280;59606;52.138;5.424;2023-03-21T14:15:53;101215.84;;;13.63;69.81
71772;BME280;59606;52.138;5.424;2023-03-21T14:18:24;101215.50;;;13.70;70.80
71772;BME280;59606;52.138;5.424;2023-03-21T14:21:19;101212.56;;;13.74;69.97
71772;BME280;59606;52.138;5.424;2023-03-21T14:24:15;101214.91;;;13.64;70.59
71772;BME280;59606;52.138;5.424;2023-03-21T14:26:46;101211.66;;;13.61;70.09
71772;BME280;59606;52.138;5.424;2023-03-21T14:31:54;101206.72;;;13.42;71.52
71772;BME280;59606;52.138;5.424;2023-03-21T14:34:22;101201.00;;;13.50;72.12
71772;BME280;59606;52.138;5.424;2023-03-21T14:36:51;101203.72;;;13.62;71.63
71772;BME280;59606;52.138;5.424;2023-03-21T14:39:31;101202.47;;;13.68;71.40
71772;BME280;59606;52.138;5.424;2023-03-21T14:42:04;101196.97;;;13.73;71.24
71772;BME280;59606;52.138;5.424;2023-03-21T14:44:36;101199.09;;;13.80;71.80
71772;BME280;59606;52.138;5.424;2023-03-21T14:47:22;101200.22;;;13.76;72.15